sensor_id;sensor_type;location;lat;lon;timestamp;pressure;altitude;pressure_sealevel;temperature;humidity
28289;BME280;15558;50.874;6.964;2023-01-01T00:00:39;100789.94;;;19.36;43.56
28289;BME280;15558;50.874;6.964;2023-01-01T00:03:08;100799.78;;;19.38;44.26
28289;BME280;15558;50.874;6.964;2023-01-01T00:05:37;100792.69;;;19.44;43.75
28289;BME280;15558;50.874;6.964;2023-01-01T00:08:23;100806.09;;;19.32;43.33
28289;BME280;15558;50.874;6.964;2023-01-01T00:11:10;100812.00;;;19.15;44.07
28289;BME280;15558;50.874;6.964;2023-01-01T00:13:39;100814.75;;;19.24;43.26
28289;BME280;15558;50.874;6.964;2023-01-01T00:16:09;100809.31;;;19.31;43.34
28289;BME280;15558;50.874;6.964;2023-01-01T00:18:36;100804.09;;;19.33;43.28
28289;BME280;15558;50.874;6.964;2023-01-01T00:21:10;100810.00;;;19.28;43.46
28289;BME280;15558;50.874;6.964;2023-01-01T00:23:36;100822.44;;;19.47;42.86
28289;BME280;15558;50.874;6.964;2023-01-01T00:26:09;100820.09;;;19.25;43.18
28289;BME280;15558;50.874;6.964;2023-01-01T00:28:35;100822.44;;;19.11;43.43
28289;BME280;15558;50.874;6.964;2023-01-01T00:31:05;100825.06;;;19.28;43.04
28289;BME280;15558;50.874;6.964;2023-01-01T00:33:34;100817.94;;;19.34;43.14
28289;BME280;15558;50.874;6.964;2023-01-01T00:36:19;100812.81;;;19.16;43.43
28289;BME280;15558;50.874;6.964;2023-01-01T00:38:45;100828.25;;;19.15;43.22
28289;BME280;15558;50.874;6.964;2023-01-01T00:41:12;100827.41;;;19.26;43.29
28289;BME280;15558;50.874;6.964;2023-01-01T00:43:38;100811.91;;;19.12;43.21
28289;BME280;15558;50.874;6.964;2023-01-01T00:46:07;100818.66;;;19.19;42.68
28289;BME280;15558;50.874;6.964;2023-01-01T00:48:33;100819.00;;;19.06;43.25
28289;BME280;15558;50.874;6.964;2023-01-01T00:51:00;100810.13;;;19.19;43.08
28289;BME280;15558;50.874;6.964;2023-01-01T00:53:26;100804.50;;;18.99;43.80
28289;BME280;15558;50.874;6.964;2023-01-01T00:55:52;100796.34;;;19.09;43.65
28289;BME280;15558;50.874;6.964;2023-01-01T00:58:20;100797.78;;;19.03;43.53
28289;BME280;15558;50.874;6.964;2023-01-01T01:00:47;100797.88;;;19.07;43.82
28289;BME280;15558;50.874;6.964;2023-01-01T01:03:17;100813.56;;;19.13;44.04
28289;BME280;15558;50.874;6.964;2023-01-01T01:05:53;100810.28;;;18.91;43.85
28289;BME280;15558;50.874;6.964;2023-01-01T01:08:22;100828.88;;;18.88;44.08
28289;BME280;15558;50.874;6.964;2023-01-01T01:13:58;100846.50;;;19.02;43.56
28289;BME280;15558;50.874;6.964;2023-01-01T01:16:28;100854.22;;;19.13;43.04
28289;BME280;15558;50.874;6.964;2023-01-01T01:18:56;100849.63;;;19.21;43.32
28289;BME280;15558;50.874;6.964;2023-01-01T01:21:28;100846.28;;;19.19;44.06
28289;BME280;15558;50.874;6.964;2023-01-01T01:23:58;100851.50;;;19.17;43.00
28289;BME280;15558;50.874;6.964;2023-01-01T01:26:26;100846.25;;;19.07;42.92
28289;BME280;15558;50.874;6.964;2023-01-01T01:28:52;100853.16;;;19.06;43.36
28289;BME280;15558;50.874;6.964;2023-01-01T01:31:22;100854.31;;;19.05;43.32
28289;BME280;15558;50.874;6.964;2023-01-01T01:33:49;100854.56;;;19.00;42.54
28289;BME280;15558;50.874;6.964;2023-01-01T01:36:16;100851.72;;;19.00;43.62
28289;BME280;15558;50.874;6.964;2023-01-01T01:38:42;100856.34;;;19.04;42.58
28289;BME280;15558;50.874;6.964;2023-01-01T01:41:09;100859.97;;;18.93;43.22
28289;BME280;15558;50.874;6.964;2023-01-01T01:46:13;100866.41;;;19.02;43.03
28289;BME280;15558;50.874;6.964;2023-01-01T01:48:41;100865.13;;;18.99;42.89
28289;BME280;15558;50.874;6.964;2023-01-01T01:51:08;100873.28;;;19.01;42.32
28289;BME280;15558;50.874;6.964;2023-01-01T01:53:36;100872.50;;;19.12;41.89
28289;BME280;15558;50.874;6.964;2023-01-01T01:56:09;100872.97;;;19.14;42.23
28289;BME280;15558;50.874;6.964;2023-01-01T01:58:35;100888.47;;;19.05;42.07
28289;BME280;15558;50.874;6.964;2023-01-01T02:01:02;100886.91;;;19.07;41.90
28289;BME280;15558;50.874;6.964;2023-01-01T02:06:04;100897.81;;;19.05;42.24
28289;BME280;15558;50.874;6.964;2023-01-01T02:08:31;100897.00;;;19.05;41.03
28289;BME280;15558;50.874;6.964;2023-01-01T02:11:00;100896.31;;;19.08;41.34
28289;BME280;15558;50.874;6.964;2023-01-01T02:13:26;100888.56;;;18.97;40.74
28289;BME280;15558;50.874;6.964;2023-01-01T02:18:25;100883.50;;;19.02;41.36
28289;BME280;15558;50.874;6.964;2023-01-01T02:20:59;100879.81;;;19.01;41.15
28289;BME280;15558;50.874;6.964;2023-01-01T02:31:17;100873.50;;;18.96;41.11
28289;BME280;15558;50.874;6.964;2023-01-01T02:33:50;100874.88;;;18.90;41.06
28289;BME280;15558;50.874;6.964;2023-01-01T02:36:21;100877.19;;;18.97;40.99
28289;BME280;15558;50.874;6.964;2023-01-01T02:38:50;100870.09;;;19.02;40.44
28289;BME280;15558;50.874;6.964;2023-01-01T02:41:21;100870.50;;;18.93;41.03
28289;BME280;15558;50.874;6.964;2023-01-01T02:43:49;100879.44;;;19.03;40.83
28289;BME280;15558;50.874;6.964;2023-01-01T02:46:15;100879.19;;;18.96;40.92
28289;BME280;15558;50.874;6.964;2023-01-01T02:48:47;100881.00;;;19.00;40.96
28289;BME280;15558;50.874;6.964;2023-01-01T03:01:57;100885.63;;;19.05;40.94
28289;BME280;15558;50.874;6.964;2023-01-01T03:04:42;100876.88;;;19.10;41.26
28289;BME280;15558;50.874;6.964;2023-01-01T03:12:32;100886.53;;;18.97;41.82
28289;BME280;15558;50.874;6.964;2023-01-01T03:15:26;100884.13;;;18.87;41.53
28289;BME280;15558;50.874;6.964;2023-01-01T03:20:32;100877.56;;;19.07;41.19
28289;BME280;15558;50.874;6.964;2023-01-01T03:23:01;100869.97;;;19.11;41.35
28289;BME280;15558;50.874;6.964;2023-01-01T03:25:32;100873.56;;;19.08;41.30
28289;BME280;15558;50.874;6.964;2023-01-01T03:28:03;100885.38;;;18.98;41.50
28289;BME280;15558;50.874;6.964;2023-01-01T03:30:34;100888.94;;;19.07;41.71
28289;BME280;15558;50.874;6.964;2023-01-01T03:36:40;100914.50;;;18.95;41.63
28289;BME280;15558;50.874;6.964;2023-01-01T03:38:51;100898.78;;;19.09;42.19
28289;BME280;15558;50.874;6.964;2023-01-01T03:46:50;100893.69;;;19.03;42.50
28289;BME280;15558;50.874;6.964;2023-01-01T03:49:19;100893.34;;;19.04;42.09
28289;BME280;15558;50.874;6.964;2023-01-01T03:54:27;100895.44;;;18.96;42.66
28289;BME280;15558;50.874;6.964;2023-01-01T03:57:08;100900.09;;;19.00;42.67
28289;BME280;15558;50.874;6.964;2023-01-01T03:59:52;100899.84;;;19.05;42.84
28289;BME280;15558;50.874;6.964;2023-01-01T04:02:25;100902.00;;;19.08;42.61
28289;BME280;15558;50.874;6.964;2023-01-01T04:04:53;100892.50;;;19.04;43.19
28289;BME280;15558;50.874;6.964;2023-01-01T04:07:20;100894.59;;;18.95;42.88
28289;BME280;15558;50.874;6.964;2023-01-01T04:09:48;100899.38;;;19.03;42.78
28289;BME280;15558;50.874;6.964;2023-01-01T04:12:16;100912.44;;;19.04;42.88
28289;BME280;15558;50.874;6.964;2023-01-01T04:14:43;100914.84;;;19.14;42.85
28289;BME280;15558;50.874;6.964;2023-01-01T04:17:10;100917.75;;;19.05;42.82
28289;BME280;15558;50.874;6.964;2023-01-01T04:19:36;100913.81;;;18.98;43.34
28289;BME280;15558;50.874;6.964;2023-01-01T04:22:03;100916.56;;;19.06;43.05
28289;BME280;15558;50.874;6.964;2023-01-01T04:24:29;100909.91;;;19.02;42.88
28289;BME280;15558;50.874;6.964;2023-01-01T04:26:58;100915.63;;;19.02;43.57
28289;BME280;15558;50.874;6.964;2023-01-01T04:29:27;100923.09;;;19.07;43.15
28289;BME280;15558;50.874;6.964;2023-01-01T04:31:56;100932.25;;;19.12;43.22
28289;BME280;15558;50.874;6.964;2023-01-01T04:34:22;100919.84;;;19.29;43.00
28289;BME280;15558;50.874;6.964;2023-01-01T04:36:49;100921.44;;;19.18;43.23
28289;BME280;15558;50.874;6.964;2023-01-01T04:39:16;100926.06;;;19.10;43.30
28289;BME280;15558;50.874;6.964;2023-01-01T04:41:50;100921.09;;;19.19;43.60
28289;BME280;15558;50.874;6.964;2023-01-01T04:44:18;100926.56;;;19.12;43.84
28289;BME280;15558;50.874;6.964;2023-01-01T04:46:44;100900.38;;;19.19;43.90
28289;BME280;15558;50.874;6.964;2023-01-01T04:49:13;100910.16;;;19.09;43.78
28289;BME280;15558;50.874;6.964;2023-01-01T04:51:49;100931.13;;;19.05;44.23
28289;BME280;15558;50.874;6.964;2023-01-01T04:54:15;100924.88;;;19.11;44.22
28289;BME280;15558;50.874;6.964;2023-01-01T04:56:41;100936.50;;;19.06;44.25
28289;BME280;15558;50.874;6.964;2023-01-01T04:59:07;100934.13;;;19.08;44.37
28289;BME280;15558;50.874;6.964;2023-01-01T05:01:41;100927.38;;;19.13;44.42
28289;BME280;15558;50.874;6.964;2023-01-01T05:04:08;100927.34;;;19.01;44.32
28289;BME280;15558;50.874;6.964;2023-01-01T05:06:38;100936.28;;;18.91;44.63
28289;BME280;15558;50.874;6.964;2023-01-01T05:09:04;100935.88;;;19.01;44.63
28289;BME280;15558;50.874;6.964;2023-01-01T05:11:30;100932.81;;;19.06;44.35
28289;BME280;15558;50.874;6.964;2023-01-01T05:13:57;100924.72;;;18.96;44.54
28289;BME280;15558;50.874;6.964;2023-01-01T05:16:27;100920.97;;;19.04;44.47
28289;BME280;15558;50.874;6.964;2023-01-01T05:18:54;100920.97;;;19.04;44.93
28289;BME280;15558;50.874;6.964;2023-01-01T05:21:21;100931.13;;;19.05;44.72
28289;BME280;15558;50.874;6.964;2023-01-01T05:23:47;100938.50;;;19.06;44.78
28289;BME280;15558;50.874;6.964;2023-01-01T05:26:15;100949.63;;;18.99;45.17
28289;BME280;15558;50.874;6.964;2023-01-01T05:28:41;100952.66;;;19.14;44.76
28289;BME280;15558;50.874;6.964;2023-01-01T05:31:08;100945.31;;;18.93;45.11
28289;BME280;15558;50.874;6.964;2023-01-01T05:33:34;100949.41;;;18.84;45.59
28289;BME280;15558;50.874;6.964;2023-01-01T05:36:00;100957.19;;;18.95;45.26
28289;BME280;15558;50.874;6.964;2023-01-01T05:38:29;100953.41;;;18.83;45.45
28289;BME280;15558;50.874;6.964;2023-01-01T05:40:58;100961.34;;;18.77;45.95
28289;BME280;15558;50.874;6.964;2023-01-01T05:43:24;100964.59;;;18.88;45.72
28289;BME280;15558;50.874;6.964;2023-01-01T05:46:03;100977.09;;;18.95;45.62
28289;BME280;15558;50.874;6.964;2023-01-01T05:48:31;100957.47;;;19.02;45.71
28289;BME280;15558;50.874;6.964;2023-01-01T05:51:06;100958.63;;;19.01;45.46
28289;BME280;15558;50.874;6.964;2023-01-01T05:53:33;100973.00;;;18.84;45.86
28289;BME280;15558;50.874;6.964;2023-01-01T05:55:59;100986.53;;;18.87;46.07
28289;BME280;15558;50.874;6.964;2023-01-01T05:58:26;100991.03;;;18.88;46.09
28289;BME280;15558;50.874;6.964;2023-01-01T06:00:52;100991.03;;;18.88;46.03
28289;BME280;15558;50.874;6.964;2023-01-01T06:03:18;100988.00;;;18.93;46.20
28289;BME280;15558;50.874;6.964;2023-01-01T06:05:44;101011.38;;;18.98;46.12
28289;BME280;15558;50.874;6.964;2023-01-01T06:08:13;101015.41;;;18.98;46.03
28289;BME280;15558;50.874;6.964;2023-01-01T06:10:39;101024.28;;;18.96;46.23
28289;BME280;15558;50.874;6.964;2023-01-01T06:13:05;101025.09;;;18.76;46.80
28289;BME280;15558;50.874;6.964;2023-01-01T06:15:32;101026.84;;;18.89;46.80
28289;BME280;15558;50.874;6.964;2023-01-01T06:17:58;101024.28;;;18.96;46.26
28289;BME280;15558;50.874;6.964;2023-01-01T06:20:33;101019.28;;;18.93;46.48
28289;BME280;15558;50.874;6.964;2023-01-01T06:22:59;101012.22;;;18.99;46.66
28289;BME280;15558;50.874;6.964;2023-01-01T06:25:30;101021.13;;;18.98;46.61
28289;BME280;15558;50.874;6.964;2023-01-01T06:27:56;101024.28;;;18.96;46.96
28289;BME280;15558;50.874;6.964;2023-01-01T06:30:22;101036.34;;;18.93;46.87
28289;BME280;15558;50.874;6.964;2023-01-01T06:32:49;101031.16;;;18.95;46.90
28289;BME280;15558;50.874;6.964;2023-01-01T06:35:15;101027.47;;;18.95;46.76
28289;BME280;15558;50.874;6.964;2023-01-01T06:37:41;101036.44;;;19.05;46.78
28289;BME280;15558;50.874;6.964;2023-01-01T06:40:10;101030.53;;;19.10;46.92
28289;BME280;15558;50.874;6.964;2023-01-01T06:42:48;101030.81;;;19.17;46.29
28289;BME280;15558;50.874;6.964;2023-01-01T06:45:18;101030.31;;;19.15;46.70
28289;BME280;15558;50.874;6.964;2023-01-01T06:47:49;101042.34;;;19.00;47.28
28289;BME280;15558;50.874;6.964;2023-01-01T06:50:27;101038.72;;;18.91;47.30
28289;BME280;15558;50.874;6.964;2023-01-01T06:52:53;101049.97;;;19.08;47.20
28289;BME280;15558;50.874;6.964;2023-01-01T06:55:33;101050.78;;;19.08;47.07
28289;BME280;15558;50.874;6.964;2023-01-01T06:58:00;101054.81;;;18.87;47.51
28289;BME280;15558;50.874;6.964;2023-01-01T07:00:26;101041.19;;;18.72;47.98
28289;BME280;15558;50.874;6.964;2023-01-01T07:02:51;101040.78;;;18.82;47.94
28289;BME280;15558;50.874;6.964;2023-01-01T07:05:17;101039.69;;;18.95;47.72
28289;BME280;15558;50.874;6.964;2023-01-01T07:07:43;101046.72;;;18.98;47.72
28289;BME280;15558;50.874;6.964;2023-01-01T07:10:10;101048.75;;;18.89;47.92
28289;BME280;15558;50.874;6.964;2023-01-01T07:12:39;101060.00;;;18.85;47.93
28289;BME280;15558;50.874;6.964;2023-01-01T07:15:05;101060.84;;;18.86;47.75
28289;BME280;15558;50.874;6.964;2023-01-01T07:17:33;101063.41;;;18.99;47.65
28289;BME280;15558;50.874;6.964;2023-01-01T07:20:08;101076.63;;;19.03;47.52
28289;BME280;15558;50.874;6.964;2023-01-01T07:22:34;101070.38;;;19.10;47.53
28289;BME280;15558;50.874;6.964;2023-01-01T07:25:02;101079.41;;;19.12;47.28
28289;BME280;15558;50.874;6.964;2023-01-01T07:27:28;101091.28;;;19.14;47.75
28289;BME280;15558;50.874;6.964;2023-01-01T07:29:57;101092.91;;;19.15;47.64
28289;BME280;15558;50.874;6.964;2023-01-01T07:32:23;101092.16;;;19.06;47.70
28289;BME280;15558;50.874;6.964;2023-01-01T07:34:49;101091.31;;;19.05;47.94
28289;BME280;15558;50.874;6.964;2023-01-01T07:37:15;101095.09;;;18.98;48.23
28289;BME280;15558;50.874;6.964;2023-01-01T07:39:42;101108.88;;;19.07;47.97
28289;BME280;15558;50.874;6.964;2023-01-01T07:42:08;101119.25;;;19.12;47.86
28289;BME280;15558;50.874;6.964;2023-01-01T07:44:34;101116.91;;;18.85;48.24
28289;BME280;15558;50.874;6.964;2023-01-01T07:47:00;101138.78;;;18.93;48.03
28289;BME280;15558;50.874;6.964;2023-01-01T07:49:27;101141.13;;;18.91;48.30
28289;BME280;15558;50.874;6.964;2023-01-01T07:51:52;101137.41;;;18.99;48.29
28289;BME280;15558;50.874;6.964;2023-01-01T07:54:18;101144.28;;;18.98;48.17
28289;BME280;15558;50.874;6.964;2023-01-01T07:56:44;101150.16;;;18.93;48.32
28289;BME280;15558;50.874;6.964;2023-01-01T07:59:10;101143.16;;;18.82;48.76
28289;BME280;15558;50.874;6.964;2023-01-01T08:01:36;101157.19;;;18.96;48.29
28289;BME280;15558;50.874;6.964;2023-01-01T08:04:03;101150.59;;;18.75;48.70
28289;BME280;15558;50.874;6.964;2023-01-01T08:06:36;101161.81;;;18.71;49.11
28289;BME280;15558;50.874;6.964;2023-01-01T08:09:26;101148.28;;;18.97;48.57
28289;BME280;15558;50.874;6.964;2023-01-01T08:11:51;101151.53;;;18.87;48.86
28289;BME280;15558;50.874;6.964;2023-01-01T08:14:19;101150.81;;;18.90;49.11
28289;BME280;15558;50.874;6.964;2023-01-01T08:16:45;101155.81;;;19.01;48.57
28289;BME280;15558;50.874;6.964;2023-01-01T08:19:12;101167.91;;;18.90;48.97
28289;BME280;15558;50.874;6.964;2023-01-01T08:21:38;101175.38;;;19.03;48.59
28289;BME280;15558;50.874;6.964;2023-01-01T08:24:07;101163.00;;;18.99;49.22
28289;BME280;15558;50.874;6.964;2023-01-01T08:26:34;101174.53;;;19.02;49.11
28289;BME280;15558;50.874;6.964;2023-01-01T08:29:03;101181.16;;;19.15;49.04
28289;BME280;15558;50.874;6.964;2023-01-01T08:31:30;101181.59;;;18.97;49.55
28289;BME280;15558;50.874;6.964;2023-01-01T08:33:58;101172.91;;;18.93;49.62
28289;BME280;15558;50.874;6.964;2023-01-01T08:36:27;101177.94;;;18.96;49.81
28289;BME280;15558;50.874;6.964;2023-01-01T08:38:59;101180.06;;;18.99;49.71
28289;BME280;15558;50.874;6.964;2023-01-01T08:41:25;101184.94;;;18.98;49.89
28289;BME280;15558;50.874;6.964;2023-01-01T08:43:51;101175.50;;;18.78;50.65
28289;BME280;15558;50.874;6.964;2023-01-01T08:46:17;101182.44;;;18.89;50.48
28289;BME280;15558;50.874;6.964;2023-01-01T08:48:44;101169.25;;;18.84;50.55
28289;BME280;15558;50.874;6.964;2023-01-01T08:51:20;101164.28;;;18.81;51.05
28289;BME280;15558;50.874;6.964;2023-01-01T08:53:47;101160.59;;;18.81;51.04
28289;BME280;15558;50.874;6.964;2023-01-01T08:56:13;101179.81;;;18.84;51.18
28289;BME280;15558;50.874;6.964;2023-01-01T08:58:47;101176.63;;;18.85;51.22
28289;BME280;15558;50.874;6.964;2023-01-01T09:01:13;101183.78;;;18.63;51.75
28289;BME280;15558;50.874;6.964;2023-01-01T09:03:38;101206.13;;;18.72;51.64
28289;BME280;15558;50.874;6.964;2023-01-01T09:06:05;101213.47;;;18.82;51.67
28289;BME280;15558;50.874;6.964;2023-01-01T09:08:31;101207.00;;;18.73;51.97
28289;BME280;15558;50.874;6.964;2023-01-01T09:10:58;101202.81;;;18.70;51.87
28289;BME280;15558;50.874;6.964;2023-01-01T09:13:28;101198.47;;;18.73;51.85
28289;BME280;15558;50.874;6.964;2023-01-01T09:15:55;101204.75;;;18.78;51.65
28289;BME280;15558;50.874;6.964;2023-01-01T09:18:21;101203.94;;;18.78;51.82
28289;BME280;15558;50.874;6.964;2023-01-01T09:20:47;101203.88;;;18.95;51.38
28289;BME280;15558;50.874;6.964;2023-01-01T09:23:13;101208.75;;;18.86;51.52
28289;BME280;15558;50.874;6.964;2023-01-01T09:25:50;101229.78;;;19.01;51.11
28289;BME280;15558;50.874;6.964;2023-01-01T09:28:16;101236.81;;;19.04;51.31
28289;BME280;15558;50.874;6.964;2023-01-01T09:30:42;101250.06;;;19.00;51.05
28289;BME280;15558;50.874;6.964;2023-01-01T09:33:09;101245.53;;;18.99;51.16
28289;BME280;15558;50.874;6.964;2023-01-01T09:35:34;101242.84;;;18.94;51.32
28289;BME280;15558;50.874;6.964;2023-01-01T09:38:02;101255.78;;;18.83;51.44
28289;BME280;15558;50.874;6.964;2023-01-01T09:45:42;101272.66;;;18.88;51.29
28289;BME280;15558;50.874;6.964;2023-01-01T09:48:17;101295.13;;;18.81;51.62
28289;BME280;15558;50.874;6.964;2023-01-01T09:50:48;101292.28;;;18.81;51.37
28289;BME280;15558;50.874;6.964;2023-01-01T09:53:16;101287.88;;;18.92;51.09
28289;BME280;15558;50.874;6.964;2023-01-01T09:55:47;101283.22;;;18.96;51.13
28289;BME280;15558;50.874;6.964;2023-01-01T09:58:17;101276.69;;;18.87;51.24
28289;BME280;15558;50.874;6.964;2023-01-01T10:00:51;101274.19;;;18.86;51.38
28289;BME280;15558;50.874;6.964;2023-01-01T10:03:47;101268.66;;;18.89;51.33
28289;BME280;15558;50.874;6.964;2023-01-01T10:14:25;101302.06;;;19.09;51.06
28289;BME280;15558;50.874;6.964;2023-01-01T10:17:32;101298.44;;;19.00;51.13
28289;BME280;15558;50.874;6.964;2023-01-01T10:20:01;101284.38;;;18.95;51.29
28289;BME280;15558;50.874;6.964;2023-01-01T10:22:39;101276.44;;;19.09;51.22
28289;BME280;15558;50.874;6.964;2023-01-01T10:25:28;101271.63;;;19.01;51.59
28289;BME280;15558;50.874;6.964;2023-01-01T10:27:59;101286.00;;;19.04;51.25
28289;BME280;15558;50.874;6.964;2023-01-01T10:30:26;101287.03;;;19.00;51.51
28289;BME280;15558;50.874;6.964;2023-01-01T10:32:53;101293.34;;;19.14;51.41
28289;BME280;15558;50.874;6.964;2023-01-01T10:35:24;101280.28;;;19.13;51.40
28289;BME280;15558;50.874;6.964;2023-01-01T10:38:02;101289.16;;;19.11;51.43
28289;BME280;15558;50.874;6.964;2023-01-01T10:40:29;101277.19;;;18.98;51.87
28289;BME280;15558;50.874;6.964;2023-01-01T10:42:56;101268.25;;;19.07;51.55
28289;BME280;15558;50.874;6.964;2023-01-01T10:46:08;101270.13;;;18.95;51.89
28289;BME280;15558;50.874;6.964;2023-01-01T10:48:23;101267.97;;;18.92;52.27
28289;BME280;15558;50.874;6.964;2023-01-01T10:51:00;101246.38;;;18.99;51.98
28289;BME280;15558;50.874;6.964;2023-01-01T10:55:59;101238.19;;;18.98;52.37
28289;BME280;15558;50.874;6.964;2023-01-01T10:58:31;101237.47;;;19.01;52.03
28289;BME280;15558;50.874;6.964;2023-01-01T11:01:00;101234.84;;;18.96;52.08
28289;BME280;15558;50.874;6.964;2023-01-01T11:03:26;101231.16;;;18.96;51.99
28289;BME280;15558;50.874;6.964;2023-01-01T11:06:02;101231.13;;;19.04;51.72
28289;BME280;15558;50.874;6.964;2023-01-01T11:08:29;101231.25;;;19.07;51.93
28289;BME280;15558;50.874;6.964;2023-01-01T11:10:57;101232.09;;;19.08;51.89
28289;BME280;15558;50.874;6.964;2023-01-01T11:13:24;101224.19;;;19.13;51.71
28289;BME280;15558;50.874;6.964;2023-01-01T11:15:56;101220.84;;;19.11;52.00
28289;BME280;15558;50.874;6.964;2023-01-01T11:18:25;101239.66;;;19.04;52.04
28289;BME280;15558;50.874;6.964;2023-01-01T11:21:02;101243.66;;;19.03;52.04
28289;BME280;15558;50.874;6.964;2023-01-01T11:23:30;101240.31;;;19.01;52.21
28289;BME280;15558;50.874;6.964;2023-01-01T11:28:32;101265.94;;;19.01;51.82
28289;BME280;15558;50.874;6.964;2023-01-01T11:33:38;101262.28;;;18.92;52.67
28289;BME280;15558;50.874;6.964;2023-01-01T11:36:07;101267.91;;;19.09;52.17
28289;BME280;15558;50.874;6.964;2023-01-01T11:38:36;101274.63;;;19.04;52.13
28289;BME280;15558;50.874;6.964;2023-01-01T11:41:03;101293.69;;;19.12;51.95
28289;BME280;15558;50.874;6.964;2023-01-01T11:43:40;101289.16;;;19.11;52.07
28289;BME280;15558;50.874;6.964;2023-01-01T11:46:09;101298.88;;;19.10;51.65
28289;BME280;15558;50.874;6.964;2023-01-01T11:48:41;101288.31;;;19.11;51.71
28289;BME280;15558;50.874;6.964;2023-01-01T11:51:09;101293.75;;;18.96;51.72
28289;BME280;15558;50.874;6.964;2023-01-01T11:53:37;101294.25;;;18.98;51.45
28289;BME280;15558;50.874;6.964;2023-01-01T11:56:10;101289.56;;;19.01;51.37
28289;BME280;15558;50.874;6.964;2023-01-01T12:02:03;101277.13;;;19.06;50.76
28289;BME280;15558;50.874;6.964;2023-01-01T12:07:04;101272.81;;;19.00;50.98
28289;BME280;15558;50.874;6.964;2023-01-01T12:10:20;101261.91;;;19.02;50.99
28289;BME280;15558;50.874;6.964;2023-01-01T12:17:38;101253.38;;;19.02;51.19
28289;BME280;15558;50.874;6.964;2023-01-01T12:22:56;101240.28;;;19.09;50.42
28289;BME280;15558;50.874;6.964;2023-01-01T12:25:48;101239.09;;;19.10;50.34
28289;BME280;15558;50.874;6.964;2023-01-01T12:28:28;101241.25;;;19.13;50.07
28289;BME280;15558;50.874;6.964;2023-01-01T12:31:11;101241.97;;;19.10;50.16
28289;BME280;15558;50.874;6.964;2023-01-01T12:41:47;101235.94;;;19.12;49.86
28289;BME280;15558;50.874;6.964;2023-01-01T13:00:42;101235.72;;;19.17;50.17
28289;BME280;15558;50.874;6.964;2023-01-01T13:03:17;101228.50;;;19.19;49.62
28289;BME280;15558;50.874;6.964;2023-01-01T13:05:44;101231.56;;;19.14;50.05
28289;BME280;15558;50.874;6.964;2023-01-01T13:08:15;101221.75;;;19.24;49.92
28289;BME280;15558;50.874;6.964;2023-01-01T13:10:45;101229.63;;;19.27;49.78
28289;BME280;15558;50.874;6.964;2023-01-01T13:13:12;101229.53;;;19.15;50.20
28289;BME280;15558;50.874;6.964;2023-01-01T13:20:52;101233.22;;;19.15;49.81
28289;BME280;15558;50.874;6.964;2023-01-01T13:28:41;101230.25;;;19.32;49.59
28289;BME280;15558;50.874;6.964;2023-01-01T13:31:10;101236.31;;;19.31;49.14
28289;BME280;15558;50.874;6.964;2023-01-01T13:33:42;101235.88;;;19.20;49.22
28289;BME280;15558;50.874;6.964;2023-01-01T13:49:13;101215.09;;;19.20;48.48
28289;BME280;15558;50.874;6.964;2023-01-01T14:02:39;101211.69;;;19.06;49.05
28289;BME280;15558;50.874;6.964;2023-01-01T14:05:17;101211.69;;;19.06;48.88
28289;BME280;15558;50.874;6.964;2023-01-01T14:07:49;101219.84;;;19.07;49.15
28289;BME280;15558;50.874;6.964;2023-01-01T14:10:20;101222.25;;;18.97;49.17
28289;BME280;15558;50.874;6.964;2023-01-01T14:12:51;101220.16;;;19.14;49.12
28289;BME280;15558;50.874;6.964;2023-01-01T14:15:22;101221.69;;;19.12;48.92
28289;BME280;15558;50.874;6.964;2023-01-01T14:17:49;101228.22;;;19.12;49.04
28289;BME280;15558;50.874;6.964;2023-01-01T14:20:16;101224.81;;;19.19;48.82
28289;BME280;15558;50.874;6.964;2023-01-01T14:22:49;101227.34;;;19.20;48.91
28289;BME280;15558;50.874;6.964;2023-01-01T14:25:19;101236.75;;;19.12;49.36
28289;BME280;15558;50.874;6.964;2023-01-01T14:27:47;101237.75;;;19.16;48.85
28289;BME280;15558;50.874;6.964;2023-01-01T14:30:17;101240.63;;;19.08;48.86
28289;BME280;15558;50.874;6.964;2023-01-01T14:32:53;101241.13;;;19.10;49.25
28289;BME280;15558;50.874;6.964;2023-01-01T14:35:19;101234.78;;;19.04;49.74
28289;BME280;15558;50.874;6.964;2023-01-01T14:37:45;101231.94;;;19.04;50.28
28289;BME280;15558;50.874;6.964;2023-01-01T14:40:21;101236.00;;;18.87;50.50
28289;BME280;15558;50.874;6.964;2023-01-01T14:43:03;101238.00;;;18.95;50.83
28289;BME280;15558;50.874;6.964;2023-01-01T14:45:30;101249.91;;;18.88;51.41
28289;BME280;15558;50.874;6.964;2023-01-01T14:48:16;101243.59;;;18.74;51.98
28289;BME280;15558;50.874;6.964;2023-01-01T14:50:45;101239.09;;;18.73;51.57
28289;BME280;15558;50.874;6.964;2023-01-01T14:53:15;101235.56;;;18.76;51.84
28289;BME280;15558;50.874;6.964;2023-01-01T14:55:43;101242.19;;;18.89;51.63
28289;BME280;15558;50.874;6.964;2023-01-01T14:58:17;101251.09;;;18.87;51.63
28289;BME280;15558;50.874;6.964;2023-01-01T15:00:50;101244.28;;;18.71;52.16
28289;BME280;15558;50.874;6.964;2023-01-01T15:03:18;101244.47;;;18.75;52.37
28289;BME280;15558;50.874;6.964;2023-01-01T15:05:45;101255.66;;;18.71;52.80
28289;BME280;15558;50.874;6.964;2023-01-01T15:08:22;101257.00;;;18.74;52.87
28289;BME280;15558;50.874;6.964;2023-01-01T15:10:48;101246.81;;;18.73;52.92
28289;BME280;15558;50.874;6.964;2023-01-01T15:13:19;101250.69;;;18.68;52.90
28289;BME280;15558;50.874;6.964;2023-01-01T15:15:48;101257.84;;;18.66;53.13
28289;BME280;15558;50.874;6.964;2023-01-01T15:20:59;101257.72;;;18.63;53.65
28289;BME280;15558;50.874;6.964;2023-01-01T15:23:25;101261.06;;;18.64;53.96
28289;BME280;15558;50.874;6.964;2023-01-01T15:25:54;101264.28;;;18.55;54.42
28289;BME280;15558;50.874;6.964;2023-01-01T15:28:23;101271.97;;;18.54;55.53